Time;durP1;ratioP1;P1;durP2;ratioP2;P2;SDS_P1;SDS_P2;PMS_P1;PMS_P2;Temp;Humidity;BMP_temperature;BMP_pressure;BME280_temperature;BME280_humidity;BME280_pressure;Samples;Min_cycle;Max_cycle;Signal;HPM_P1;HPM_P2
2021/06/14 00:00:12;;;;;;;;;;;15.00;99.90;;;;;;5041324;28;20506;-68
2021/06/14 00:02:39;;;;;;;;;;;15.00;99.90;;;;;;5012295;28;19949;-68
2021/06/14 00:05:05;;;;;;;;;;;14.90;99.90;;;;;;5031055;28;20028;-68
2021/06/14 00:07:31;;;;;;;;;;;14.90;99.90;;;;;;5030137;28;20417;-68
2021/06/14 00:09:56;;;;;;;;;;;14.80;99.90;;;;;;5030063;28;20374;-68
2021/06/14 00:12:22;;;;;;;;;;;14.80;99.90;;;;;;5029884;28;20366;-67
2021/06/14 00:14:49;;;;;;;;;;;14.80;99.90;;;;;;5030755;28;20261;-67
2021/06/14 00:17:14;;;;;;;;;;;14.70;99.90;;;;;;5030174;28;20293;-69
2021/06/14 00:19:40;;;;;;;;;;;14.70;99.90;;;;;;5029682;28;19909;-68
2021/06/14 00:22:06;;;;;;;;;;;14.70;99.90;;;;;;5029355;28;19913;-67
2021/06/14 00:24:31;;;;;;;;;;;14.70;99.90;;;;;;5012079;28;19909;-67
2021/06/14 00:26:57;;;;;;;;;;;14.70;99.90;;;;;;5033277;28;20420;-68
2021/06/14 00:29:22;;;;;;;;;;;14.60;99.90;;;;;;5041241;28;19963;-67
2021/06/14 00:31:48;;;;;;;;;;;14.70;99.90;;;;;;5050133;28;20491;-68
2021/06/14 00:34:13;;;;;;;;;;;14.70;99.90;;;;;;5049579;28;19917;-68
2021/06/14 00:36:39;;;;;;;;;;;14.70;99.90;;;;;;5049694;28;19909;-69
2021/06/14 00:39:04;;;;;;;;;;;14.60;99.90;;;;;;5049343;28;19909;-72
2021/06/14 00:41:30;;;;;;;;;;;14.60;99.90;;;;;;5049731;28;19939;-68
2021/06/14 00:43:55;;;;;;;;;;;14.70;99.90;;;;;;5049917;28;19923;-68
2021/06/14 00:46:21;;;;;;;;;;;14.60;99.90;;;;;;5049537;28;19909;-69
2021/06/14 00:48:46;;;;;;;;;;;14.60;99.90;;;;;;5049629;28;19932;-68
2021/06/14 00:51:12;;;;;;;;;;;14.60;99.90;;;;;;5040958;28;19913;-68
2021/06/14 00:53:41;;;;;;;;;;;14.50;99.90;;;;;;5029320;28;19967;-68
2021/06/14 00:56:09;;;;;;;;;;;14.50;99.90;;;;;;5029829;28;20000;-68
2021/06/14 00:58:36;;;;;;;;;;;14.50;99.90;;;;;;5029160;28;19932;-68
2021/06/14 01:01:02;;;;;;;;;;;14.40;99.90;;;;;;5040784;28;19909;-68
2021/06/14 01:03:27;;;;;;;;;;;14.40;99.90;;;;;;5028464;28;20356;-67
2021/06/14 01:05:58;;;;;;;;;;;14.40;99.90;;;;;;5028062;28;19981;-68
2021/06/14 01:08:24;;;;;;;;;;;14.30;99.90;;;;;;5028896;28;20247;-68
2021/06/14 01:10:50;;;;;;;;;;;14.30;99.90;;;;;;5028784;28;19927;-68
2021/06/14 01:13:24;;;;;;;;;;;14.30;99.90;;;;;;5028823;28;19932;-68
2021/06/14 01:15:53;;;;;;;;;;;14.30;99.90;;;;;;5028801;28;20011;-69
2021/06/14 01:18:25;;;;;;;;;;;14.30;99.90;;;;;;5029182;28;19909;-70
2021/06/14 01:21:08;;;;;;;;;;;14.30;99.90;;;;;;5028196;28;20302;-70
2021/06/14 01:23:34;;;;;;;;;;;14.30;99.90;;;;;;5029245;28;19915;-69
2021/06/14 01:26:04;;;;;;;;;;;14.30;99.90;;;;;;5029171;28;20385;-70
2021/06/14 01:28:31;;;;;;;;;;;14.20;99.90;;;;;;5028708;28;19967;-70
2021/06/14 01:30:57;;;;;;;;;;;14.20;99.90;;;;;;5028114;28;19909;-69
2021/06/14 01:33:24;;;;;;;;;;;14.20;99.90;;;;;;5028358;28;19992;-70
2021/06/14 01:35:49;;;;;;;;;;;14.10;99.90;;;;;;5028344;28;19909;-70
2021/06/14 01:38:16;;;;;;;;;;;14.00;99.90;;;;;;5028846;28;20396;-68
2021/06/14 01:40:41;;;;;;;;;;;14.00;99.90;;;;;;5028193;28;19971;-70
2021/06/14 01:43:08;;;;;;;;;;;13.90;99.90;;;;;;5028315;28;19921;-69
2021/06/14 01:45:35;;;;;;;;;;;13.90;99.90;;;;;;5028887;28;19954;-70
2021/06/14 01:48:02;;;;;;;;;;;13.90;99.90;;;;;;5027792;28;19955;-69
2021/06/14 01:50:28;;;;;;;;;;;13.90;99.90;;;;;;5028964;28;19910;-69
2021/06/14 01:52:54;;;;;;;;;;;13.80;99.90;;;;;;5048188;28;20337;-69
2021/06/14 01:55:20;;;;;;;;;;;13.80;99.90;;;;;;5048955;28;19954;-70
2021/06/14 01:57:46;;;;;;;;;;;13.70;99.90;;;;;;5048281;28;19956;-69
2021/06/14 02:00:12;;;;;;;;;;;13.70;99.90;;;;;;5038924;28;19910;-69
2021/06/14 02:02:38;;;;;;;;;;;13.70;99.90;;;;;;5027313;28;20814;-68
2021/06/14 02:05:04;;;;;;;;;;;13.70;99.90;;;;;;5036095;28;20234;-69
2021/06/14 02:07:31;;;;;;;;;;;13.60;99.90;;;;;;5044228;28;19963;-70
2021/06/14 02:09:56;;;;;;;;;;;13.60;99.90;;;;;;5048375;28;19962;-69
2021/06/14 02:12:23;;;;;;;;;;;13.60;99.90;;;;;;5048009;28;19920;-69
2021/06/14 02:14:48;;;;;;;;;;;13.50;99.90;;;;;;5048666;28;19974;-70
2021/06/14 02:17:15;;;;;;;;;;;13.50;1.00;;;;;;5047758;28;20015;-70
2021/06/14 02:19:41;;;;;;;;;;;13.50;1.00;;;;;;5047451;28;19985;-70
2021/06/14 02:22:08;;;;;;;;;;;13.50;1.00;;;;;;5047811;28;19920;-68
2021/06/14 02:24:33;;;;;;;;;;;13.50;1.00;;;;;;5047957;28;20361;-71
2021/06/14 02:26:59;;;;;;;;;;;13.50;1.00;;;;;;5033089;28;19913;-70
2021/06/14 02:29:24;;;;;;;;;;;13.50;1.00;;;;;;5010023;28;19913;-69
2021/06/14 02:31:50;;;;;;;;;;;13.40;1.00;;;;;;5027920;28;19920;-71
2021/06/14 02:34:16;;;;;;;;;;;13.40;1.00;;;;;;5027747;28;19920;-71
2021/06/14 02:36:42;;;;;;;;;;;13.40;1.00;;;;;;5027742;28;19913;-71
2021/06/14 02:39:16;;;;;;;;;;;13.30;1.00;;;;;;5028061;28;19982;-70
2021/06/14 02:41:42;;;;;;;;;;;13.30;1.00;;;;;;5028086;28;19928;-70
2021/06/14 02:44:08;;;;;;;;;;;13.30;1.00;;;;;;5028032;28;20357;-70
2021/06/14 02:46:41;;;;;;;;;;;13.30;1.00;;;;;;5027606;28;19913;-71
2021/06/14 02:49:07;;;;;;;;;;;13.20;1.00;;;;;;5027898;28;19944;-70
2021/06/14 02:51:35;;;;;;;;;;;13.20;1.00;;;;;;5037549;28;19909;-70
2021/06/14 02:54:03;;;;;;;;;;;13.10;1.00;;;;;;5047920;28;19920;-70
2021/06/14 02:56:30;;;;;;;;;;;13.10;1.00;;;;;;5047344;28;20721;-69
2021/06/14 02:58:56;;;;;;;;;;;13.10;1.00;;;;;;5047490;28;19912;-70
2021/06/14 03:01:21;;;;;;;;;;;13.10;1.00;;;;;;5028734;28;19924;-70
2021/06/14 03:03:48;;;;;;;;;;;13.10;1.00;;;;;;5027305;28;19909;-70
2021/06/14 03:06:15;;;;;;;;;;;13.10;1.00;;;;;;5028021;28;19909;-70
2021/06/14 03:08:40;;;;;;;;;;;13.10;1.00;;;;;;5027799;28;19913;-70
2021/06/14 03:11:06;;;;;;;;;;;13.10;1.00;;;;;;5027724;28;19920;-69
2021/06/14 03:13:32;;;;;;;;;;;13.10;1.00;;;;;;5027467;28;20537;-70
2021/06/14 03:15:58;;;;;;;;;;;13.00;1.00;;;;;;5030912;28;19909;-70
2021/06/14 03:18:24;;;;;;;;;;;13.10;1.00;;;;;;5030934;28;19931;-70
2021/06/14 03:20:53;;;;;;;;;;;13.00;1.00;;;;;;5029072;28;19909;-70
2021/06/14 03:23:18;;;;;;;;;;;13.00;1.00;;;;;;5031453;28;19909;-71
2021/06/14 03:25:44;;;;;;;;;;;13.00;1.00;;;;;;5031340;28;20392;-70
2021/06/14 03:28:10;;;;;;;;;;;13.00;1.00;;;;;;5038652;28;19913;-70
2021/06/14 03:30:39;;;;;;;;;;;13.10;1.00;;;;;;5047437;28;19920;-70
2021/06/14 03:33:05;;;;;;;;;;;13.10;1.00;;;;;;5049399;28;19912;-70
2021/06/14 03:35:32;;;;;;;;;;;13.10;1.00;;;;;;5051336;28;19913;-71
2021/06/14 03:37:57;;;;;;;;;;;13.10;1.00;;;;;;5050564;28;20267;-70
2021/06/14 03:40:23;;;;;;;;;;;13.20;1.00;;;;;;5050442;28;19909;-70
2021/06/14 03:42:49;;;;;;;;;;;13.30;1.00;;;;;;5050142;28;20444;-69
2021/06/14 03:45:14;;;;;;;;;;;13.40;1.00;;;;;;5051061;28;19909;-70
2021/06/14 03:47:40;;;;;;;;;;;13.60;1.00;;;;;;5050399;28;19908;-70
2021/06/14 03:50:07;;;;;;;;;;;13.80;1.00;;;;;;5049844;28;20242;-70
2021/06/14 03:52:32;;;;;;;;;;;14.00;1.00;;;;;;5032134;28;19920;-69
2021/06/14 03:54:58;;;;;;;;;;;14.20;1.00;;;;;;5030872;28;20377;-70
2021/06/14 03:57:23;;;;;;;;;;;14.40;1.00;;;;;;5030905;28;19913;-70
2021/06/14 03:59:49;;;;;;;;;;;14.60;99.90;;;;;;5035869;28;20050;-70
2021/06/14 04:02:14;;;;;;;;;;;14.80;99.90;;;;;;5043432;28;19941;-71
2021/06/14 04:04:52;;;;;;;;;;;15.10;99.90;;;;;;5030285;28;19923;-70
2021/06/14 04:07:18;;;;;;;;;;;15.30;99.90;;;;;;5030752;28;19909;-70
2021/06/14 04:09:43;;;;;;;;;;;15.60;99.90;;;;;;5029913;28;19913;-70
2021/06/14 04:12:09;;;;;;;;;;;15.70;99.90;;;;;;5030276;28;19913;-69
2021/06/14 04:14:35;;;;;;;;;;;16.00;99.90;;;;;;5030029;28;19917;-70
2021/06/14 04:17:00;;;;;;;;;;;16.30;99.90;;;;;;5030267;28;20019;-70
2021/06/14 04:19:26;;;;;;;;;;;16.70;99.90;;;;;;5029498;28;19992;-70
2021/06/14 04:21:51;;;;;;;;;;;17.10;99.90;;;;;;5030140;28;19920;-70
2021/06/14 04:24:17;;;;;;;;;;;17.40;99.90;;;;;;5028560;28;20303;-70
2021/06/14 04:26:42;;;;;;;;;;;17.50;99.90;;;;;;5028267;28;20338;-70
2021/06/14 04:29:08;;;;;;;;;;;17.80;99.90;;;;;;5029520;28;19924;-70
2021/06/14 04:31:33;;;;;;;;;;;18.20;99.90;;;;;;5029286;28;19955;-69
2021/06/14 04:33:59;;;;;;;;;;;18.70;99.90;;;;;;5029757;28;20028;-70
2021/06/14 04:36:24;;;;;;;;;;;19.20;99.90;;;;;;5029602;28;19909;-70
2021/06/14 04:38:50;;;;;;;;;;;19.70;99.90;;;;;;5029436;28;20002;-70
2021/06/14 04:41:16;;;;;;;;;;;20.00;99.90;;;;;;5029379;28;20099;-70
2021/06/14 04:43:42;;;;;;;;;;;20.50;99.90;;;;;;5026016;28;20352;-71
2021/06/14 04:46:07;;;;;;;;;;;20.60;99.90;;;;;;5027534;28;19913;-70
2021/06/14 04:48:33;;;;;;;;;;;20.90;99.90;;;;;;5029232;28;19952;-71
2021/06/14 04:50:58;;;;;;;;;;;21.00;99.90;;;;;;5033361;28;20002;-70
2021/06/14 04:53:24;;;;;;;;;;;21.10;99.90;;;;;;5049423;28;20380;-71
2021/06/14 04:55:49;;;;;;;;;;;21.30;99.90;;;;;;5049135;28;19913;-70
2021/06/14 04:58:15;;;;;;;;;;;21.40;99.90;;;;;;5033432;28;19920;-70
2021/06/14 05:00:40;;;;;;;;;;;21.50;99.90;;;;;;5041767;28;20250;-70
2021/06/14 05:03:06;;;;;;;;;;;21.80;99.90;;;;;;5034682;28;19913;-71
2021/06/14 05:05:32;;;;;;;;;;;22.30;99.90;;;;;;5038199;28;20006;-71
2021/06/14 05:07:57;;;;;;;;;;;22.40;99.90;;;;;;5048707;28;20187;-70
2021/06/14 05:10:23;;;;;;;;;;;22.70;99.90;;;;;;5049681;28;20277;-70
2021/06/14 05:12:48;;;;;;;;;;;23.00;99.90;;;;;;5048693;28;19999;-70
2021/06/14 05:15:14;;;;;;;;;;;23.50;99.90;;;;;;5049761;28;20023;-70
2021/06/14 05:17:39;;;;;;;;;;;24.00;99.90;;;;;;5049026;28;19999;-70
2021/06/14 05:20:05;;;;;;;;;;;24.10;99.90;;;;;;5048189;28;20302;-69
2021/06/14 05:22:31;;;;;;;;;;;24.30;99.90;;;;;;5048225;28;20358;-70
2021/06/14 05:24:56;;;;;;;;;;;24.70;99.90;;;;;;5048904;28;20285;-69
2021/06/14 05:27:22;;;;;;;;;;;24.80;99.90;;;;;;5030768;28;19924;-70
2021/06/14 05:29:48;;;;;;;;;;;24.70;99.90;;;;;;5027443;28;20011;-72
2021/06/14 05:32:13;;;;;;;;;;;24.30;99.90;;;;;;5029159;28;19917;-71
2021/06/14 05:34:39;;;;;;;;;;;24.40;99.90;;;;;;5028620;28;19918;-70
2021/06/14 05:37:04;;;;;;;;;;;24.60;99.90;;;;;;5028302;28;20007;-70
2021/06/14 05:39:30;;;;;;;;;;;25.10;99.90;;;;;;5028173;28;19909;-70
2021/06/14 05:41:55;;;;;;;;;;;25.40;99.40;;;;;;5028622;28;19909;-70
2021/06/14 05:44:21;;;;;;;;;;;25.80;97.50;;;;;;5028364;28;19923;-69
2021/06/14 05:46:47;;;;;;;;;;;26.10;95.90;;;;;;5010758;28;19992;-69
2021/06/14 05:49:12;;;;;;;;;;;26.40;94.20;;;;;;5028420;28;19978;-68
2021/06/14 05:51:38;;;;;;;;;;;26.60;91.90;;;;;;5039272;28;19909;-70
2021/06/14 05:54:05;;;;;;;;;;;26.80;90.00;;;;;;5049197;28;19924;-70
2021/06/14 05:56:30;;;;;;;;;;;27.10;87.30;;;;;;5047888;28;19913;-71
2021/06/14 05:58:56;;;;;;;;;;;27.60;82.10;;;;;;5048591;28;20408;-70
2021/06/14 06:01:21;;;;;;;;;;;28.30;78.70;;;;;;5048192;28;19936;-71
2021/06/14 06:03:47;;;;;;;;;;;28.90;73.00;;;;;;5031532;28;20003;-71
2021/06/14 06:06:12;;;;;;;;;;;29.60;69.80;;;;;;5039552;28;20361;-71
2021/06/14 06:08:38;;;;;;;;;;;30.20;63.00;;;;;;5029656;28;19913;-73
2021/06/14 06:11:03;;;;;;;;;;;30.70;58.00;;;;;;5026902;28;19959;-69
2021/06/14 06:13:29;;;;;;;;;;;31.30;53.30;;;;;;5038591;28;19916;-70
2021/06/14 06:15:55;;;;;;;;;;;31.60;49.50;;;;;;5036786;28;20254;-69
2021/06/14 06:18:20;;;;;;;;;;;31.40;43.50;;;;;;5027576;28;19909;-70
2021/06/14 06:20:46;;;;;;;;;;;31.00;39.90;;;;;;5026143;28;19913;-71
2021/06/14 06:23:11;;;;;;;;;;;31.60;37.90;;;;;;5028200;28;19913;-70
2021/06/14 06:25:37;;;;;;;;;;;32.20;34.90;;;;;;5028076;28;20243;-70
2021/06/14 06:28:03;;;;;;;;;;;32.40;30.50;;;;;;5028095;28;19924;-69
2021/06/14 06:30:29;;;;;;;;;;;32.00;27.10;;;;;;5027801;28;20022;-69
2021/06/14 06:32:55;;;;;;;;;;;31.60;25.50;;;;;;5027001;28;19916;-68
2021/06/14 06:35:21;;;;;;;;;;;32.40;24.50;;;;;;5028045;28;19913;-69
2021/06/14 06:37:47;;;;;;;;;;;32.80;21.50;;;;;;5027367;28;19948;-70
2021/06/14 06:40:13;;;;;;;;;;;33.00;19.60;;;;;;5027314;28;19914;-69
2021/06/14 06:42:39;;;;;;;;;;;33.10;17.20;;;;;;5027224;28;19909;-69
2021/06/14 06:45:05;;;;;;;;;;;33.00;15.50;;;;;;5027838;28;20004;-69
2021/06/14 06:47:30;;;;;;;;;;;33.70;13.90;;;;;;5027518;28;19913;-68
2021/06/14 06:49:56;;;;;;;;;;;33.40;11.20;;;;;;5028731;28;19932;-68
2021/06/14 06:52:21;;;;;;;;;;;32.80;9.30;;;;;;5048235;28;20356;-68
2021/06/14 06:54:47;;;;;;;;;;;31.90;6.80;;;;;;5051713;28;19974;-69
2021/06/14 06:57:13;;;;;;;;;;;31.80;6.00;;;;;;5051283;28;19919;-68
2021/06/14 06:59:39;;;;;;;;;;;31.90;5.50;;;;;;5046335;28;19916;-68
2021/06/14 07:02:04;;;;;;;;;;;32.30;4.60;;;;;;5031228;28;19909;-68
2021/06/14 07:04:30;;;;;;;;;;;32.90;2.80;;;;;;5031488;28;20039;-68
2021/06/14 07:06:56;;;;;;;;;;;33.40;1.50;;;;;;5031163;28;19913;-68
2021/06/14 07:09:21;;;;;;;;;;;33.00;1.00;;;;;;5030710;28;19913;-68
2021/06/14 07:11:47;;;;;;;;;;;32.30;1.00;;;;;;5030891;28;20235;-68
2021/06/14 07:14:12;;;;;;;;;;;32.50;1.00;;;;;;5030602;28;19913;-69
2021/06/14 07:16:39;;;;;;;;;;;33.20;1.00;;;;;;5031012;28;19983;-69
2021/06/14 07:19:05;;;;;;;;;;;33.10;1.00;;;;;;5029771;28;19920;-67
2021/06/14 07:21:31;;;;;;;;;;;32.70;1.00;;;;;;5038591;28;19916;-70
2021/06/14 07:23:56;;;;;;;;;;;32.60;1.00;;;;;;5051043;28;20235;-68
2021/06/14 07:26:22;;;;;;;;;;;32.00;1.00;;;;;;5041010;28;19933;-68
2021/06/14 07:28:48;;;;;;;;;;;31.80;1.00;;;;;;5040696;28;19964;-68
2021/06/14 07:31:14;;;;;;;;;;;31.90;1.00;;;;;;5050155;28;19909;-68
2021/06/14 07:33:40;;;;;;;;;;;31.70;1.70;;;;;;5050118;28;19940;-67
2021/06/14 07:36:07;;;;;;;;;;;32.20;1.00;;;;;;5051001;28;20397;-68
2021/06/14 07:38:33;;;;;;;;;;;32.50;1.00;;;;;;5051279;28;19952;-68
2021/06/14 07:40:58;;;;;;;;;;;33.00;1.00;;;;;;5050548;28;19952;-68
2021/06/14 07:43:24;;;;;;;;;;;33.20;1.00;;;;;;5050212;28;19921;-68
2021/06/14 07:45:50;;;;;;;;;;;33.90;1.00;;;;;;5050788;28;19987;-68
2021/06/14 07:48:16;;;;;;;;;;;33.90;1.00;;;;;;5050399;28;19919;-68
2021/06/14 07:50:42;;;;;;;;;;;34.00;1.00;;;;;;5047387;28;20409;-68
2021/06/14 07:53:08;;;;;;;;;;;34.00;1.00;;;;;;5030888;28;19953;-69
2021/06/14 07:55:34;;;;;;;;;;;35.20;1.00;;;;;;5031026;28;19989;-69
2021/06/14 07:58:00;;;;;;;;;;;35.60;1.00;;;;;;5030607;28;19947;-69
2021/06/14 08:00:26;;;;;;;;;;;35.80;1.00;;;;;;5040877;28;19921;-69
2021/06/14 08:02:51;;;;;;;;;;;35.80;1.00;;;;;;5038584;28;19913;-67
2021/06/14 08:05:17;;;;;;;;;;;36.30;1.00;;;;;;5031596;28;20070;-69
2021/06/14 08:07:43;;;;;;;;;;;36.30;1.00;;;;;;5030879;28;19924;-68
2021/06/14 08:10:10;;;;;;;;;;;36.50;1.00;;;;;;5030323;28;19909;-68
2021/06/14 08:12:41;;;;;;;;;;;36.50;1.00;;;;;;5030075;28;19909;-69
2021/06/14 08:15:07;;;;;;;;;;;36.80;1.00;;;;;;5030188;28;19920;-68
2021/06/14 08:17:32;;;;;;;;;;;36.90;1.00;;;;;;5030063;28;19909;-67
2021/06/14 08:20:09;;;;;;;;;;;37.50;1.00;;;;;;5029769;28;19915;-69
2021/06/14 08:25:18;;;;;;;;;;;36.20;1.00;;;;;;5030591;28;20470;-68
2021/06/14 08:27:45;;;;;;;;;;;36.10;1.00;;;;;;5029596;28;20003;-68
2021/06/14 08:30:21;;;;;;;;;;;35.70;1.00;;;;;;5029298;28;20046;-68
2021/06/14 08:32:47;;;;;;;;;;;35.50;1.00;;;;;;5029685;28;20624;-68
2021/06/14 08:35:14;;;;;;;;;;;34.80;1.00;;;;;;5029825;28;19917;-68
2021/06/14 08:37:40;;;;;;;;;;;34.70;1.00;;;;;;5029736;28;19913;-67
2021/06/14 08:40:06;;;;;;;;;;;34.80;1.00;;;;;;5029236;28;19913;-67
2021/06/14 08:42:31;;;;;;;;;;;35.60;1.00;;;;;;5029462;28;19913;-70
2021/06/14 08:44:57;;;;;;;;;;;35.50;1.00;;;;;;5029563;28;20335;-68
2021/06/14 08:47:23;;;;;;;;;;;34.90;1.00;;;;;;5048428;28;19916;-68
2021/06/14 08:49:48;;;;;;;;;;;34.80;1.00;;;;;;5048880;28;19909;-69
2021/06/14 08:52:14;;;;;;;;;;;35.40;1.00;;;;;;5049313;28;19909;-68
2021/06/14 08:54:43;;;;;;;;;;;36.70;1.00;;;;;;5049898;28;19960;-68
2021/06/14 08:57:09;;;;;;;;;;;37.50;1.00;;;;;;5048206;28;20440;-69
2021/06/14 08:59:35;;;;;;;;;;;37.20;1.00;;;;;;5045266;28;19976;-68
2021/06/14 09:02:00;;;;;;;;;;;37.10;1.00;;;;;;5029360;28;19949;-68
2021/06/14 09:04:27;;;;;;;;;;;36.90;1.00;;;;;;5037291;28;19928;-70
2021/06/14 09:06:52;;;;;;;;;;;36.30;1.00;;;;;;5048030;28;19970;-68
2021/06/14 09:09:18;;;;;;;;;;;36.60;1.00;;;;;;5048459;28;19920;-69
2021/06/14 09:11:51;;;;;;;;;;;36.20;1.00;;;;;;5030228;28;19909;-69
2021/06/14 09:14:19;;;;;;;;;;;36.30;1.00;;;;;;5029108;28;20427;-69
2021/06/14 09:16:45;;;;;;;;;;;36.20;1.00;;;;;;5028652;28;19949;-69
2021/06/14 09:19:28;;;;;;;;;;;37.30;1.00;;;;;;5028194;28;19967;-68
2021/06/14 09:21:57;;;;;;;;;;;37.20;1.00;;;;;;5029144;28;20317;-68
2021/06/14 09:24:23;;;;;;;;;;;36.40;1.00;;;;;;5028968;28;20533;-69
2021/06/14 09:26:49;;;;;;;;;;;36.90;1.00;;;;;;5028235;28;20840;-68
2021/06/14 09:29:19;;;;;;;;;;;36.80;1.00;;;;;;5027809;28;19917;-68
2021/06/14 09:31:47;;;;;;;;;;;35.90;1.00;;;;;;5028263;28;19959;-69
2021/06/14 09:34:14;;;;;;;;;;;36.40;1.00;;;;;;5028248;28;19913;-70
2021/06/14 09:36:40;;;;;;;;;;;37.20;1.00;;;;;;5028142;28;19917;-69
2021/06/14 09:39:14;;;;;;;;;;;36.80;1.00;;;;;;5027885;28;19913;-69
2021/06/14 09:41:41;;;;;;;;;;;35.70;1.00;;;;;;5029140;28;20320;-69
2021/06/14 09:44:07;;;;;;;;;;;36.90;1.00;;;;;;5028592;28;20027;-70
2021/06/14 09:46:33;;;;;;;;;;;37.50;1.00;;;;;;5028164;28;20000;-69
2021/06/14 09:49:00;;;;;;;;;;;38.20;1.00;;;;;;5027644;28;20337;-69
2021/06/14 09:51:26;;;;;;;;;;;37.40;1.00;;;;;;5036735;28;19917;-69
2021/06/14 09:53:53;;;;;;;;;;;37.30;1.00;;;;;;5048829;28;19917;-69
2021/06/14 09:56:21;;;;;;;;;;;37.60;1.00;;;;;;5048451;28;19924;-68
2021/06/14 09:58:48;;;;;;;;;;;37.60;1.00;;;;;;5048829;28;20007;-67
2021/06/14 10:01:21;;;;;;;;;;;37.50;1.00;;;;;;5030063;28;19932;-67
2021/06/14 10:03:47;;;;;;;;;;;37.70;1.00;;;;;;5028107;28;19910;-70
2021/06/14 10:06:13;;;;;;;;;;;37.90;1.00;;;;;;5028586;28;20239;-68
2021/06/14 10:08:42;;;;;;;;;;;37.00;1.00;;;;;;5028807;28;19909;-68
2021/06/14 10:11:17;;;;;;;;;;;37.50;1.00;;;;;;5027657;28;19917;-68
2021/06/14 10:13:47;;;;;;;;;;;37.80;1.00;;;;;;5028908;28;19909;-69
2021/06/14 10:16:14;;;;;;;;;;;38.00;1.00;;;;;;5028650;28;19910;-70
2021/06/14 10:18:51;;;;;;;;;;;38.80;1.00;;;;;;5028000;28;19924;-69
2021/06/14 10:21:37;;;;;;;;;;;38.50;1.00;;;;;;5026953;28;20298;-69
2021/06/14 10:24:09;;;;;;;;;;;39.00;1.00;;;;;;5029961;28;19920;-68
2021/06/14 10:26:36;;;;;;;;;;;37.90;1.00;;;;;;5032106;28;19913;-68
2021/06/14 10:29:02;;;;;;;;;;;37.20;1.00;;;;;;5043812;28;19971;-69
2021/06/14 10:31:29;;;;;;;;;;;36.50;1.00;;;;;;5052336;28;20343;-70
2021/06/14 10:33:55;;;;;;;;;;;35.90;1.00;;;;;;5052044;28;19909;-69
2021/06/14 10:36:22;;;;;;;;;;;35.30;1.00;;;;;;5031033;28;19917;-71
2021/06/14 10:38:48;;;;;;;;;;;34.90;1.00;;;;;;5032486;28;19917;-69
2021/06/14 10:41:14;;;;;;;;;;;34.60;1.00;;;;;;5031715;28;19916;-70
2021/06/14 10:43:40;;;;;;;;;;;35.30;1.00;;;;;;5031572;28;20354;-70
2021/06/14 10:46:08;;;;;;;;;;;35.00;1.00;;;;;;5032043;28;20003;-70
2021/06/14 10:48:34;;;;;;;;;;;35.20;1.00;;;;;;5031963;28;19909;-71
2021/06/14 10:51:01;;;;;;;;;;;35.80;1.00;;;;;;5031505;28;20244;-71
2021/06/14 10:53:27;;;;;;;;;;;35.80;1.00;;;;;;5031794;28;20238;-70
2021/06/14 10:55:53;;;;;;;;;;;35.50;1.00;;;;;;5031704;28;19921;-69
2021/06/14 10:58:19;;;;;;;;;;;35.10;1.00;;;;;;5031893;28;19960;-71
2021/06/14 11:00:46;;;;;;;;;;;34.60;1.00;;;;;;5027767;28;19923;-69
2021/06/14 11:03:14;;;;;;;;;;;33.70;1.00;;;;;;5025723;28;20584;-70
2021/06/14 11:05:41;;;;;;;;;;;33.80;1.00;;;;;;5029902;28;19909;-69
2021/06/14 11:08:10;;;;;;;;;;;33.50;1.00;;;;;;5031819;28;19924;-69
2021/06/14 11:10:36;;;;;;;;;;;33.00;1.00;;;;;;5030861;28;19933;-70
2021/06/14 11:13:05;;;;;;;;;;;33.20;1.00;;;;;;5031290;28;19951;-70
2021/06/14 11:15:32;;;;;;;;;;;33.70;1.00;;;;;;5031491;28;19917;-69
2021/06/14 11:18:00;;;;;;;;;;;34.00;1.00;;;;;;5031001;28;19913;-69
2021/06/14 11:20:31;;;;;;;;;;;34.30;1.00;;;;;;5030762;28;20370;-69
2021/06/14 11:22:56;;;;;;;;;;;35.10;1.00;;;;;;5030624;28;19909;-68
2021/06/14 11:25:33;;;;;;;;;;;34.70;1.00;;;;;;5031518;28;19916;-69
2021/06/14 11:28:01;;;;;;;;;;;34.30;1.00;;;;;;5031242;28;19956;-70
2021/06/14 11:30:29;;;;;;;;;;;34.90;1.00;;;;;;5031149;28;19924;-69
2021/06/14 11:32:54;;;;;;;;;;;34.30;1.00;;;;;;5030935;28;20296;-70
2021/06/14 11:35:20;;;;;;;;;;;33.90;1.00;;;;;;5030965;28;19913;-70
2021/06/14 11:37:47;;;;;;;;;;;33.40;1.00;;;;;;5031249;28;19983;-70
2021/06/14 11:40:14;;;;;;;;;;;32.70;1.00;;;;;;5030743;28;20051;-69
2021/06/14 11:42:47;;;;;;;;;;;31.80;1.00;;;;;;5030247;28;19974;-70
2021/06/14 11:45:27;;;;;;;;;;;31.10;1.00;;;;;;5031187;28;20369;-70
2021/06/14 11:47:52;;;;;;;;;;;30.60;1.00;;;;;;5030171;28;20008;-69
2021/06/14 11:50:25;;;;;;;;;;;29.90;1.00;;;;;;5030279;28;20163;-69
2021/06/14 11:53:04;;;;;;;;;;;29.40;1.00;;;;;;5010357;28;20069;-69
2021/06/14 11:55:31;;;;;;;;;;;28.70;1.00;;;;;;5011440;28;19925;-70
2021/06/14 11:57:58;;;;;;;;;;;28.20;1.00;;;;;;5010343;28;20012;-70
2021/06/14 12:00:25;;;;;;;;;;;28.10;1.00;;;;;;5030724;28;19909;-68
2021/06/14 12:02:51;;;;;;;;;;;27.80;1.00;;;;;;5040685;28;20014;-69
2021/06/14 12:05:16;;;;;;;;;;;27.50;1.00;;;;;;5041507;28;19959;-70
2021/06/14 12:07:42;;;;;;;;;;;27.00;1.00;;;;;;5049999;28;19909;-69
2021/06/14 12:10:12;;;;;;;;;;;26.40;1.00;;;;;;5031349;28;19991;-69
2021/06/14 12:12:38;;;;;;;;;;;25.80;1.00;;;;;;5040228;28;19913;-68
2021/06/14 12:15:04;;;;;;;;;;;25.50;1.00;;;;;;5029968;28;19913;-68
2021/06/14 12:17:31;;;;;;;;;;;25.20;1.00;;;;;;5029984;28;19909;-69
2021/06/14 12:19:57;;;;;;;;;;;25.30;1.00;;;;;;5029148;28;19913;-70
2021/06/14 12:22:24;;;;;;;;;;;25.40;1.00;;;;;;5030138;28;19917;-70
2021/06/14 12:24:49;;;;;;;;;;;25.40;1.00;;;;;;5030261;28;19916;-69
2021/06/14 12:27:15;;;;;;;;;;;25.50;1.00;;;;;;5011652;28;19909;-69
2021/06/14 12:29:43;;;;;;;;;;;25.50;1.00;;;;;;5029920;28;19909;-69
2021/06/14 12:32:14;;;;;;;;;;;25.50;1.00;;;;;;5029574;28;19939;-70
2021/06/14 12:34:41;;;;;;;;;;;25.60;1.00;;;;;;5029763;28;19963;-69
2021/06/14 12:37:10;;;;;;;;;;;25.80;1.00;;;;;;5029672;28;19928;-70
2021/06/14 12:39:36;;;;;;;;;;;25.90;1.00;;;;;;5029253;28;19917;-69
2021/06/14 12:42:03;;;;;;;;;;;26.00;1.00;;;;;;5029645;28;19909;-68
2021/06/14 12:44:28;;;;;;;;;;;26.00;1.00;;;;;;5029584;28;19921;-68
2021/06/14 12:46:54;;;;;;;;;;;26.00;1.00;;;;;;5031789;28;19920;-68
2021/06/14 12:49:23;;;;;;;;;;;26.00;1.00;;;;;;5028760;28;20343;-69
2021/06/14 12:51:49;;;;;;;;;;;25.80;1.00;;;;;;5038301;28;19909;-70
2021/06/14 12:54:15;;;;;;;;;;;25.70;1.00;;;;;;5048868;28;19924;-69
2021/06/14 12:56:41;;;;;;;;;;;25.60;1.00;;;;;;5048189;28;19917;-68
2021/06/14 12:59:07;;;;;;;;;;;25.70;1.00;;;;;;5048963;28;19959;-69
2021/06/14 13:01:36;;;;;;;;;;;25.80;1.00;;;;;;5048602;28;20262;-69
2021/06/14 13:04:02;;;;;;;;;;;26.00;1.00;;;;;;5029259;28;20019;-70
2021/06/14 13:06:31;;;;;;;;;;;26.00;1.00;;;;;;5028910;28;20012;-68
2021/06/14 13:09:04;;;;;;;;;;;25.70;1.00;;;;;;5053146;28;19917;-68
2021/06/14 13:11:39;;;;;;;;;;;25.40;1.00;;;;;;5044275;28;19924;-68
2021/06/14 13:14:04;;;;;;;;;;;25.20;1.00;;;;;;5046030;28;20266;-70
2021/06/14 13:16:33;;;;;;;;;;;25.20;1.00;;;;;;5046291;28;19910;-68
2021/06/14 13:18:59;;;;;;;;;;;25.20;1.00;;;;;;5045539;28;19913;-70
2021/06/14 13:21:29;;;;;;;;;;;25.30;1.00;;;;;;5045244;28;19916;-69
2021/06/14 13:23:55;;;;;;;;;;;25.50;1.00;;;;;;5045954;28;20402;-69
2021/06/14 13:26:22;;;;;;;;;;;25.60;1.00;;;;;;5045687;28;20389;-70
2021/06/14 13:28:49;;;;;;;;;;;25.60;1.00;;;;;;5044495;28;19917;-69
2021/06/14 13:31:19;;;;;;;;;;;25.70;1.00;;;;;;5044709;28;19909;-71
2021/06/14 13:36:46;;;;;;;;;;;25.90;1.00;;;;;;5045365;28;19928;-71
2021/06/14 13:39:14;;;;;;;;;;;26.00;1.00;;;;;;5044952;28;19909;-68
2021/06/14 13:41:40;;;;;;;;;;;26.00;1.00;;;;;;5044945;28;19932;-70
2021/06/14 13:44:05;;;;;;;;;;;25.80;1.00;;;;;;5045898;28;20365;-70
2021/06/14 13:46:40;;;;;;;;;;;25.90;1.00;;;;;;5044816;28;19996;-71
2021/06/14 13:49:05;;;;;;;;;;;25.90;1.00;;;;;;5044763;28;20019;-69
2021/06/14 13:51:31;;;;;;;;;;;26.00;1.00;;;;;;5045211;28;20282;-70
2021/06/14 13:54:03;;;;;;;;;;;26.20;1.00;;;;;;5045231;28;19971;-68
2021/06/14 13:56:32;;;;;;;;;;;26.30;1.00;;;;;;5045672;28;19913;-68
2021/06/14 13:58:58;;;;;;;;;;;26.20;1.00;;;;;;5044696;28;19959;-69
2021/06/14 14:01:26;;;;;;;;;;;26.20;1.00;;;;;;5044256;28;19940;-70
2021/06/14 14:04:03;;;;;;;;;;;26.30;1.00;;;;;;5044444;28;19917;-70
2021/06/14 14:06:30;;;;;;;;;;;26.40;1.00;;;;;;5045313;28;19913;-68
2021/06/14 14:08:57;;;;;;;;;;;26.50;1.00;;;;;;5044723;28;19996;-68
2021/06/14 14:11:22;;;;;;;;;;;26.60;1.00;;;;;;5044524;28;19919;-70
2021/06/14 14:14:02;;;;;;;;;;;26.70;1.00;;;;;;5044746;28;20003;-69
2021/06/14 14:16:27;;;;;;;;;;;26.80;1.00;;;;;;5044674;28;19913;-69
2021/06/14 14:18:54;;;;;;;;;;;26.90;1.00;;;;;;5039775;28;19909;-70
2021/06/14 14:21:20;;;;;;;;;;;26.90;1.00;;;;;;5030938;28;20282;-71
2021/06/14 14:23:45;;;;;;;;;;;26.90;1.10;;;;;;5032007;28;19913;-68
2021/06/14 14:26:11;;;;;;;;;;;26.90;2.30;;;;;;5031223;28;20401;-69
2021/06/14 14:28:36;;;;;;;;;;;26.90;1.70;;;;;;5031268;28;19941;-69